Dadeville, Missouri
Current Conditions -  °F | °C
As of 6:52 PM on Friday 24 Oct 2014 (Local Time) from KSGF Reporting Station
Clear Clear  
Wind Chill: 64°   Ceiling: Unl
Heat Index: 64°   Visibility: 10mi
Dew Point: 59°   Wind: 7mph
Humidity: 84%   Direction: 200°SSW
Pressure: 30.04"   Gusts: NA
Location:  37.48°N, 93.67°W
Report Text: KSGF 242352Z 20006KT 10SM CLR 18/15 A3004 RMK AO2 SLP168 T01780150 10244 20178 58003
Loading
Personal Weather Stations






























Interactive Weather Map
Tropical Storm Tracking
New forecast layout! Learn more

10-Day Weather Forecast

Advertisements
Track Severe Weather on mobile